createdAt,value
2018-01-06T00:00:08.976Z,90.8
2018-01-06T00:01:13.021Z,90.7
2018-01-06T00:02:17.469Z,90.8
2018-01-06T00:03:25.196Z,90.8
2018-01-06T00:04:28.699Z,90.9
2018-01-06T00:05:33.742Z,90.9
2018-01-06T00:06:37.352Z,90.8
2018-01-06T00:07:40.445Z,90.7
2018-01-06T00:08:45.640Z,90.7
2018-01-06T00:09:49.081Z,90.7
2018-01-06T00:10:53.245Z,90.7
2018-01-06T00:11:57.489Z,90.6
2018-01-06T00:13:00.934Z,90.7
2018-01-06T00:14:07.728Z,90.6
2018-01-06T00:15:12.983Z,90.5
2018-01-06T00:16:17.416Z,90.3
2018-01-06T00:17:22.724Z,90.4
2018-01-06T00:18:27.235Z,90.3
2018-01-06T00:19:32.732Z,90.3
2018-01-06T00:20:36.151Z,90.2
2018-01-06T00:21:39.614Z,90.3
2018-01-06T00:22:43.199Z,90.3
2018-01-06T00:23:46.917Z,90.3
2018-01-06T00:24:54.989Z,90.3
2018-01-06T00:25:58.368Z,90.2
2018-01-06T00:27:01.773Z,90.3
2018-01-06T00:28:05.896Z,90.3
2018-01-06T00:29:09.404Z,90.3
2018-01-06T00:30:12.854Z,90.3
2018-01-06T00:31:17.889Z,90.3
2018-01-06T00:32:21.293Z,90.3
2018-01-06T00:33:25.951Z,90.2
2018-01-06T00:34:29.542Z,90.2
2018-01-06T00:35:38.283Z,90.3
2018-01-06T00:36:41.724Z,90.4
2018-01-06T00:37:45.590Z,90.4
2018-01-06T00:38:49.941Z,90.5
2018-01-06T00:39:55.555Z,90.6
2018-01-06T00:40:59.625Z,90.5
2018-01-06T00:42:03.584Z,90.7
2018-01-06T00:43:07.141Z,90.5
2018-01-06T00:44:11.471Z,90.5
2018-01-06T00:45:14.957Z,90.5
2018-01-06T00:46:23.361Z,90.4
2018-01-06T00:47:27.314Z,90.4
2018-01-06T00:48:30.732Z,90.4
2018-01-06T00:49:34.116Z,90.3
2018-01-06T00:50:38.318Z,90.4
2018-01-06T00:51:42.520Z,90.4
2018-01-06T00:52:47.082Z,90.4
2018-01-06T00:53:50.936Z,90.2
2018-01-06T00:54:54.297Z,90.3
2018-01-06T00:55:58.276Z,90.4
2018-01-06T00:57:04.482Z,90.5
2018-01-06T00:58:07.885Z,90.5
2018-01-06T00:59:11.405Z,90.4
2018-01-06T01:00:16.279Z,90.5
2018-01-06T01:01:20.385Z,90.5
2018-01-06T01:02:23.910Z,90.6
2018-01-06T01:03:28.716Z,90.6
2018-01-06T01:04:33.240Z,90.4
2018-01-06T01:05:37.417Z,90.4
2018-01-06T01:06:41.388Z,90.4
2018-01-06T01:07:50.262Z,90.4
2018-01-06T01:08:53.527Z,90.4
2018-01-06T01:09:57.476Z,90.4
2018-01-06T01:11:01.574Z,90.4
2018-01-06T01:12:07.146Z,90.5
2018-01-06T01:13:10.656Z,90.3
2018-01-06T01:14:13.943Z,90.4
2018-01-06T01:15:17.924Z,90.4
2018-01-06T01:16:22.399Z,90.4
2018-01-06T01:17:25.852Z,90.4
2018-01-06T01:18:33.322Z,90.5
2018-01-06T01:19:37.281Z,90.5
2018-01-06T01:20:42.700Z,90.5
2018-01-06T01:21:46.473Z,90.5
2018-01-06T01:22:49.946Z,90.6
2018-01-06T01:23:54.783Z,90.5
2018-01-06T01:24:58.268Z,90.4
2018-01-06T01:26:01.679Z,90.4
2018-01-06T01:27:05.183Z,90.4
2018-01-06T01:28:08.548Z,90.3
2018-01-06T01:29:17.380Z,90.3
2018-01-06T01:30:22.271Z,90.4
2018-01-06T01:31:26.432Z,90.4
2018-01-06T01:32:29.929Z,90.3
2018-01-06T01:33:35.266Z,90.4
2018-01-06T01:34:39.447Z,90.5
2018-01-06T01:35:42.839Z,90.6
2018-01-06T01:36:46.179Z,90.5
2018-01-06T01:37:49.595Z,90.5
2018-01-06T01:38:54.032Z,90.6
2018-01-06T01:40:01.208Z,90.6
2018-01-06T01:41:04.674Z,90.7
2018-01-06T01:42:08.322Z,90.9
2018-01-06T01:43:11.798Z,90.8
2018-01-06T01:44:15.241Z,90.8
2018-01-06T01:45:19.370Z,90.8
2018-01-06T01:46:22.685Z,90.7
2018-01-06T01:47:28.981Z,90.6
2018-01-06T01:48:32.967Z,91
2018-01-06T01:49:37.202Z,90.8
2018-01-06T01:50:44.326Z,90.8
2018-01-06T01:51:47.978Z,90.7
2018-01-06T01:52:51.968Z,90.7
2018-01-06T01:53:56.787Z,90.8
2018-01-06T01:55:00.253Z,90.8
2018-01-06T01:56:06.931Z,90.6
2018-01-06T01:57:10.962Z,90.6
2018-01-06T01:58:15.782Z,90.6
2018-01-06T01:59:21.535Z,90.8
2018-01-06T02:00:24.899Z,90.7
2018-01-06T02:01:34.409Z,90.6
2018-01-06T02:02:38.075Z,90.6
2018-01-06T02:03:43.094Z,90.7
2018-01-06T02:04:47.313Z,90.6
2018-01-06T02:05:52.110Z,90.4
2018-01-06T02:06:56.687Z,90.6
2018-01-06T02:08:00.205Z,90.6
2018-01-06T02:09:04.086Z,90.5
2018-01-06T02:10:08.031Z,90.5
2018-01-06T02:11:11.305Z,90.6
2018-01-06T02:12:18.815Z,90.6
2018-01-06T02:13:23.211Z,90.7
2018-01-06T02:14:27.212Z,90.8
2018-01-06T02:15:30.713Z,90.9
2018-01-06T02:16:34.861Z,90.9
2018-01-06T02:17:48.201Z,90.9
2018-01-06T02:18:51.711Z,90.9
2018-01-06T02:19:55.091Z,91
2018-01-06T02:20:59.227Z,90.9
2018-01-06T02:22:02.550Z,90.9
2018-01-06T02:23:11.383Z,90.8
2018-01-06T02:24:14.785Z,90.9
2018-01-06T02:25:18.180Z,91.1
2018-01-06T02:26:21.676Z,91.1
2018-01-06T02:27:25.135Z,91.1
2018-01-06T02:28:29.077Z,91.2
2018-01-06T02:29:33.269Z,91.1
2018-01-06T02:30:37.144Z,91.2
2018-01-06T02:31:41.131Z,91.1
2018-01-06T02:32:44.729Z,91
2018-01-06T02:33:51.615Z,91.1
2018-01-06T02:34:55.017Z,91
2018-01-06T02:35:58.937Z,91
2018-01-06T02:37:02.460Z,91
2018-01-06T02:38:06.536Z,91
2018-01-06T02:39:10.667Z,91
2018-01-06T02:40:14.064Z,91
2018-01-06T02:41:17.542Z,91
2018-01-06T02:42:23.466Z,91.1
2018-01-06T02:43:28.328Z,91
2018-01-06T02:44:35.658Z,91
2018-01-06T02:45:39.164Z,91
2018-01-06T02:46:43.056Z,91
2018-01-06T02:47:47.547Z,91
2018-01-06T02:48:51.616Z,91
2018-01-06T02:49:55.043Z,91
2018-01-06T02:50:58.517Z,91
2018-01-06T02:52:02.015Z,91
2018-01-06T02:53:05.507Z,90.8
2018-01-06T02:54:09.129Z,91
2018-01-06T02:55:16.094Z,91
2018-01-06T02:56:20.858Z,90.9
2018-01-06T02:57:25.178Z,90.9
2018-01-06T02:58:28.774Z,90.8
2018-01-06T02:59:32.052Z,90.9
2018-01-06T03:00:35.441Z,91
2018-01-06T03:01:40.061Z,91
2018-01-06T03:02:45.719Z,91.1
2018-01-06T03:03:50.563Z,91
2018-01-06T03:04:54.270Z,91
2018-01-06T03:06:02.777Z,90.9
2018-01-06T03:07:07.012Z,90.9
2018-01-06T03:08:10.372Z,90.9
2018-01-06T03:09:13.905Z,90.9
2018-01-06T03:10:18.685Z,91
2018-01-06T03:11:23.346Z,91.1
2018-01-06T03:12:26.720Z,90.9
2018-01-06T03:13:31.982Z,90.9
2018-01-06T03:14:36.804Z,90.9
2018-01-06T03:15:40.804Z,90.9
2018-01-06T03:16:49.853Z,91
2018-01-06T03:17:54.142Z,91
2018-01-06T03:18:57.670Z,90.9
2018-01-06T03:20:02.419Z,91
2018-01-06T03:21:06.202Z,90.8
2018-01-06T03:22:10.916Z,90.8
2018-01-06T03:23:14.316Z,90.8
2018-01-06T03:24:17.562Z,90.8
2018-01-06T03:25:20.941Z,90.9
2018-01-06T03:26:24.907Z,91
2018-01-06T03:27:33.804Z,90.9
2018-01-06T03:28:37.192Z,90.9
2018-01-06T03:29:40.884Z,91
2018-01-06T03:30:45.206Z,91
2018-01-06T03:31:48.672Z,91
2018-01-06T03:32:51.951Z,90.9
2018-01-06T03:33:55.426Z,90.8
2018-01-06T03:34:58.905Z,90.8
2018-01-06T03:36:02.955Z,90.8
2018-01-06T03:37:06.948Z,90.9
2018-01-06T03:38:14.392Z,90.9
2018-01-06T03:39:18.419Z,90.9
2018-01-06T03:40:21.741Z,90.9
2018-01-06T03:41:25.097Z,90.9
2018-01-06T03:42:29.907Z,90.9
2018-01-06T03:43:34.604Z,90.8
2018-01-06T03:44:37.888Z,90.8
2018-01-06T03:45:42.049Z,90.8
2018-01-06T03:46:46.906Z,90.8
2018-01-06T03:47:51.034Z,90.8
2018-01-06T03:48:57.823Z,90.7
2018-01-06T03:50:01.218Z,91.1
2018-01-06T03:51:05.323Z,90.8
2018-01-06T03:52:09.366Z,90.9
2018-01-06T03:53:13.039Z,91
2018-01-06T03:54:17.078Z,91
2018-01-06T03:55:20.449Z,90.8
2018-01-06T03:56:23.767Z,90.9
2018-01-06T03:57:29.269Z,90.8
2018-01-06T03:58:33.777Z,90.8
2018-01-06T03:59:41.219Z,90.8
2018-01-06T04:00:46.539Z,91
2018-01-06T04:01:51.993Z,91
2018-01-06T04:02:55.937Z,91.1
2018-01-06T04:04:00.652Z,91.1
2018-01-06T04:05:03.969Z,90.9
2018-01-06T04:06:10.363Z,91
2018-01-06T04:07:14.521Z,90.9
2018-01-06T04:08:17.689Z,90.9
2018-01-06T04:09:21.711Z,90.8
2018-01-06T04:10:29.425Z,91
2018-01-06T04:11:32.950Z,91
2018-01-06T04:12:37.720Z,90.9
2018-01-06T04:13:41.049Z,90.8
2018-01-06T04:14:44.545Z,91
2018-01-06T04:15:47.951Z,91
2018-01-06T04:16:53.253Z,91
2018-01-06T04:17:56.778Z,91.2
2018-01-06T04:19:01.606Z,91.1
2018-01-06T04:20:06.931Z,91.1
2018-01-06T04:21:14.049Z,91.1
2018-01-06T04:22:18.333Z,91.2
2018-01-06T04:23:21.794Z,91.3
2018-01-06T04:24:25.869Z,91.3
2018-01-06T04:25:29.978Z,91.2
2018-01-06T04:26:33.368Z,91.2
2018-01-06T04:27:36.675Z,91.3
2018-01-06T04:28:41.348Z,91.3
2018-01-06T04:29:44.694Z,91.5
2018-01-06T04:30:49.003Z,91.5
2018-01-06T04:31:58.530Z,91.4
2018-01-06T04:33:02.009Z,91.4
2018-01-06T04:34:06.338Z,91.3
2018-01-06T04:35:09.806Z,91.4
2018-01-06T04:36:13.350Z,91.3
2018-01-06T04:37:20.743Z,91.2
2018-01-06T04:38:24.259Z,91.3
2018-01-06T04:39:28.922Z,91.4
2018-01-06T04:40:32.509Z,91.4
2018-01-06T04:41:35.849Z,91.4
2018-01-06T04:42:44.007Z,91.3
2018-01-06T04:43:48.982Z,91.3
2018-01-06T04:44:53.019Z,91.3
2018-01-06T04:45:57.015Z,91.4
2018-01-06T04:47:01.333Z,91.3
2018-01-06T04:48:06.155Z,91.4
2018-01-06T04:49:12.534Z,91.4
2018-01-06T04:50:16.706Z,91.5
2018-01-06T04:51:20.762Z,91.4
2018-01-06T04:52:24.230Z,91.3
2018-01-06T04:53:31.384Z,91.4
2018-01-06T04:54:34.808Z,91.4
2018-01-06T04:55:38.244Z,91.5
2018-01-06T04:56:41.676Z,91.5
2018-01-06T04:57:45.229Z,91.5
2018-01-06T04:58:48.739Z,91.5
2018-01-06T04:59:52.966Z,91.6
2018-01-06T05:00:57.134Z,91.5
2018-01-06T05:02:01.274Z,91.5
2018-01-06T05:03:05.517Z,91.6
2018-01-06T05:04:12.653Z,91.6
2018-01-06T05:05:17.193Z,91.6
2018-01-06T05:06:21.112Z,91.7
2018-01-06T05:07:24.394Z,91.7
2018-01-06T05:08:28.487Z,91.7
2018-01-06T05:09:31.833Z,91.6
2018-01-06T05:10:35.980Z,91.5
2018-01-06T05:11:39.998Z,91.5
2018-01-06T05:12:43.268Z,91.4
2018-01-06T05:13:47.000Z,91.5
2018-01-06T05:14:55.524Z,91.5
2018-01-06T05:15:58.799Z,91.4
2018-01-06T05:17:02.296Z,91.5
2018-01-06T05:18:05.651Z,91.5
2018-01-06T05:19:09.663Z,91.4
2018-01-06T05:20:14.109Z,91.4
2018-01-06T05:21:17.447Z,91.4
2018-01-06T05:22:20.956Z,91.4
2018-01-06T05:23:24.465Z,91.4
2018-01-06T05:24:27.885Z,91.4
2018-01-06T05:25:34.478Z,91.5
2018-01-06T05:26:37.796Z,91.3
2018-01-06T05:27:41.645Z,91.5
2018-01-06T05:28:46.397Z,91.6
2018-01-06T05:29:50.071Z,91.6
2018-01-06T05:30:55.100Z,91.5
2018-01-06T05:31:59.221Z,91.4
2018-01-06T05:33:03.422Z,91.4
2018-01-06T05:34:06.911Z,91.4
2018-01-06T05:35:11.653Z,91.3
2018-01-06T05:36:20.612Z,91.3
2018-01-06T05:37:24.709Z,91.4
2018-01-06T05:38:28.207Z,91.3
2018-01-06T05:39:33.367Z,91.3
2018-01-06T05:40:37.888Z,91.2
2018-01-06T05:41:41.303Z,91.3
2018-01-06T05:42:46.603Z,91.4
2018-01-06T05:43:50.547Z,91.3
2018-01-06T05:44:53.858Z,91.4
2018-01-06T05:45:59.331Z,91.3
2018-01-06T05:47:07.544Z,91.4
2018-01-06T05:48:12.242Z,91.5
2018-01-06T05:49:15.737Z,91.5
2018-01-06T05:50:19.746Z,91.5
2018-01-06T05:51:23.297Z,91.5
2018-01-06T05:52:27.344Z,91.5
2018-01-06T05:53:31.801Z,91.4
2018-01-06T05:54:35.241Z,91.4
2018-01-06T05:55:40.815Z,91.4
2018-01-06T05:56:44.258Z,91.4
2018-01-06T05:57:50.400Z,91.5
2018-01-06T05:58:55.054Z,91.6
2018-01-06T05:59:59.676Z,91.6
2018-01-06T06:01:03.213Z,91.5
2018-01-06T06:02:06.396Z,91.5
2018-01-06T06:03:10.030Z,91.6
2018-01-06T06:04:15.021Z,91.6
2018-01-06T06:05:19.353Z,91.6
2018-01-06T06:06:22.715Z,91.7
2018-01-06T06:07:27.543Z,91.7
2018-01-06T06:08:35.826Z,91.7
2018-01-06T06:09:39.835Z,91.7
2018-01-06T06:10:43.808Z,91.6
2018-01-06T06:11:48.409Z,91.6
2018-01-06T06:12:51.850Z,91.6
2018-01-06T06:13:56.148Z,91.6
2018-01-06T06:15:00.644Z,91.6
2018-01-06T06:16:04.137Z,91.9
2018-01-06T06:17:07.422Z,91.6
2018-01-06T06:18:11.525Z,91.6
2018-01-06T06:19:20.060Z,91.5
2018-01-06T06:20:23.282Z,91.6
2018-01-06T06:21:26.507Z,91.6
2018-01-06T06:22:29.881Z,91.5
2018-01-06T06:23:33.332Z,91.5
2018-01-06T06:24:36.928Z,91.5
2018-01-06T06:25:40.787Z,91.3
2018-01-06T06:26:45.432Z,91.4
2018-01-06T06:27:50.056Z,91.4
2018-01-06T06:28:53.514Z,91.3
2018-01-06T06:30:02.712Z,91.3
2018-01-06T06:31:06.860Z,91.4
2018-01-06T06:32:10.394Z,91.5
2018-01-06T06:33:14.543Z,91.5
2018-01-06T06:34:18.846Z,91.5
2018-01-06T06:35:22.397Z,91.5
2018-01-06T06:36:25.715Z,91.5
2018-01-06T06:37:29.988Z,91.4
2018-01-06T06:38:33.391Z,91.5
2018-01-06T06:39:36.757Z,91.4
2018-01-06T06:40:44.802Z,91.4
2018-01-06T06:41:48.827Z,91.5
2018-01-06T06:42:54.951Z,91.4
2018-01-06T06:43:59.060Z,91.4
2018-01-06T06:45:03.844Z,91.4
2018-01-06T06:46:07.880Z,91.2
2018-01-06T06:47:11.368Z,91.2
2018-01-06T06:48:15.877Z,91.2
2018-01-06T06:49:19.776Z,91.4
2018-01-06T06:50:23.728Z,91.4
2018-01-06T06:51:33.050Z,91.4
2018-01-06T06:52:36.521Z,91.4
2018-01-06T06:53:39.892Z,91.3
2018-01-06T06:54:43.941Z,91.3
2018-01-06T06:55:47.530Z,91.4
2018-01-06T06:56:51.191Z,91.3
2018-01-06T06:57:55.072Z,91.2
2018-01-06T06:58:58.513Z,91.2
2018-01-06T07:00:02.385Z,91.3
2018-01-06T07:01:05.905Z,91.4
2018-01-06T07:02:13.422Z,91.3
2018-01-06T07:03:18.990Z,91.3
2018-01-06T07:04:24.095Z,91.3
2018-01-06T07:05:27.602Z,91.3
2018-01-06T07:06:30.935Z,91.3
2018-01-06T07:07:34.831Z,91.3
2018-01-06T07:08:38.801Z,91.3
2018-01-06T07:09:42.388Z,91.3
2018-01-06T07:10:47.039Z,91.3
2018-01-06T07:11:51.312Z,91.3
2018-01-06T07:12:58.034Z,91.4
2018-01-06T07:14:01.473Z,91.3
2018-01-06T07:15:04.781Z,91.4
2018-01-06T07:16:08.381Z,91.3
2018-01-06T07:17:11.936Z,91.3
2018-01-06T07:18:15.912Z,91.4
2018-01-06T07:19:19.129Z,91.4
2018-01-06T07:20:22.577Z,91.4
2018-01-06T07:21:26.003Z,91.4
2018-01-06T07:22:29.532Z,91.4
2018-01-06T07:23:36.559Z,91.4
2018-01-06T07:24:40.019Z,91.4
2018-01-06T07:25:43.496Z,91.4
2018-01-06T07:26:47.500Z,91.4
2018-01-06T07:27:51.176Z,91.3
2018-01-06T07:28:54.524Z,91.3
2018-01-06T07:29:57.846Z,91.4
2018-01-06T07:31:01.391Z,91.4
2018-01-06T07:32:04.943Z,91.4
2018-01-06T07:33:09.209Z,91.3
2018-01-06T07:34:16.604Z,91.4
2018-01-06T07:35:21.116Z,91.4
2018-01-06T07:36:24.495Z,91.5
2018-01-06T07:37:27.766Z,91.5
2018-01-06T07:38:31.104Z,91.5
2018-01-06T07:39:34.604Z,91.5
2018-01-06T07:40:38.516Z,91.5
2018-01-06T07:41:41.952Z,91.4
2018-01-06T07:42:45.937Z,91.5
2018-01-06T07:43:50.146Z,91.5
2018-01-06T07:44:56.513Z,91.5
2018-01-06T07:46:01.933Z,91.5
2018-01-06T07:47:05.309Z,91.5
2018-01-06T07:48:10.188Z,91.6
2018-01-06T07:49:14.191Z,91.7
2018-01-06T07:50:17.633Z,91.8
2018-01-06T07:51:21.149Z,91.6
2018-01-06T07:52:26.525Z,91.6
2018-01-06T07:53:30.578Z,91.6
2018-01-06T07:54:34.104Z,91.6
2018-01-06T07:55:41.676Z,91.5
2018-01-06T07:56:45.094Z,91.6
2018-01-06T07:57:50.068Z,91.5
2018-01-06T07:58:53.578Z,91.5
2018-01-06T07:59:56.983Z,91.5
2018-01-06T08:01:00.399Z,91.4
2018-01-06T08:02:04.861Z,91.4
2018-01-06T08:03:08.964Z,91.3
2018-01-06T08:04:13.224Z,91.3
2018-01-06T08:05:17.567Z,91.3
2018-01-06T08:06:25.306Z,91.3
2018-01-06T08:07:28.800Z,91.2
2018-01-06T08:08:32.260Z,91.5
2018-01-06T08:09:36.925Z,91.3
2018-01-06T08:10:41.395Z,91.3
2018-01-06T08:11:44.998Z,91.3
2018-01-06T08:12:48.471Z,91.2
2018-01-06T08:13:53.123Z,91.2
2018-01-06T08:14:56.664Z,91.3
2018-01-06T08:16:00.116Z,91.3
2018-01-06T09:18:32.273Z,90.1
2018-01-06T09:19:35.721Z,89.7
2018-01-06T09:20:39.145Z,88.9
2018-01-06T09:21:43.616Z,88.9
2018-01-06T09:22:47.002Z,89
2018-01-06T09:23:51.135Z,88.9
2018-01-06T09:24:54.496Z,88.2
2018-01-06T09:25:58.682Z,88
2018-01-06T09:27:02.888Z,89.6
2018-01-06T09:28:16.281Z,85.4
2018-01-06T09:29:22.378Z,84.3
2018-01-06T09:30:25.971Z,83.4
2018-01-06T09:31:29.393Z,85.6
2018-01-06T09:32:33.424Z,86.2
2018-01-06T09:33:37.312Z,86.8
2018-01-06T09:34:41.345Z,87.3
2018-01-06T09:35:44.719Z,87.4
2018-01-06T09:36:48.293Z,86.8
2018-01-06T09:37:51.902Z,87.3
2018-01-06T09:38:55.736Z,86.1
2018-01-06T09:40:04.540Z,87
2018-01-06T09:41:08.564Z,87.1
2018-01-06T09:42:13.568Z,87.8
2018-01-06T09:43:17.951Z,87.4
2018-01-06T09:44:21.251Z,86.1
2018-01-06T09:45:25.920Z,86.5
2018-01-06T09:46:31.527Z,86.1
2018-01-06T09:47:35.521Z,86.9
2018-01-06T09:48:38.879Z,86.6
2018-01-06T09:49:43.665Z,87
2018-01-06T09:50:50.712Z,86.5
2018-01-06T09:51:54.188Z,86.4
2018-01-06T09:52:57.740Z,86.4
2018-01-06T09:54:01.106Z,85.5
2018-01-06T09:55:04.760Z,85.8
2018-01-06T09:56:08.781Z,84.7
2018-01-06T09:57:13.250Z,85.2
2018-01-06T09:58:16.861Z,85.4
2018-01-06T09:59:20.200Z,85
2018-01-06T10:00:24.170Z,85
2018-01-06T10:01:31.751Z,85.2
2018-01-06T10:02:35.302Z,85.3
2018-01-06T10:03:38.810Z,85.7
2018-01-06T10:04:42.346Z,85.9
2018-01-06T10:05:45.843Z,86.1
2018-01-06T10:06:49.283Z,87.2
2018-01-06T10:07:52.883Z,86.5
2018-01-06T10:08:56.321Z,86.3
2018-01-06T10:09:59.718Z,86.1
2018-01-06T10:11:03.178Z,86.1
2018-01-06T10:12:10.114Z,85.7
2018-01-06T10:13:13.671Z,84.3
2018-01-06T10:14:17.230Z,85.7
2018-01-06T10:15:20.730Z,86.7
2018-01-06T10:16:24.127Z,85.7
2018-01-06T10:17:27.605Z,85.1
2018-01-06T10:18:31.126Z,85
2018-01-06T10:19:34.975Z,85.6
2018-01-06T10:20:38.463Z,85.8
2018-01-06T10:21:42.752Z,85.3
2018-01-06T10:22:50.033Z,86
2018-01-06T10:23:53.503Z,85.8
2018-01-06T10:24:57.618Z,85.7
2018-01-06T10:26:01.241Z,86.5
2018-01-06T10:27:04.602Z,86.5
2018-01-06T10:28:08.125Z,86.1
2018-01-06T10:29:11.694Z,85.1
2018-01-06T10:30:15.052Z,84.8
2018-01-06T10:31:18.717Z,85.1
2018-01-06T10:32:22.394Z,85.7
2018-01-06T10:33:29.456Z,85.6
2018-01-06T10:34:32.961Z,86.5
2018-01-06T10:35:37.521Z,85.6
2018-01-06T10:36:41.656Z,85.9
2018-01-06T10:37:45.259Z,86.5
2018-01-06T10:38:48.846Z,87
2018-01-06T10:39:52.320Z,86.2
2018-01-06T10:40:55.757Z,86.5
2018-01-06T10:41:59.793Z,86
2018-01-06T10:43:03.793Z,85.9
2018-01-06T10:44:11.642Z,86.2
2018-01-06T10:45:15.234Z,86.3
2018-01-06T10:46:40.712Z,84.8
2018-01-06T10:48:06.142Z,84.2
2018-01-06T10:49:16.548Z,84.8
2018-01-06T10:50:21.922Z,85.3
2018-01-06T10:51:26.141Z,85.3
2018-01-06T10:52:30.108Z,85.3
2018-01-06T10:53:33.564Z,85.6
2018-01-06T10:54:38.217Z,85.5
2018-01-06T10:55:43.686Z,85.3
2018-01-06T10:56:47.204Z,85.3
2018-01-06T10:57:54.697Z,85.2
2018-01-06T10:58:58.503Z,86.2
2018-01-06T11:00:06.580Z,87.2
2018-01-06T11:01:11.223Z,87.1
2018-01-06T11:02:15.092Z,87
2018-01-06T11:03:18.486Z,86.6
2018-01-06T11:04:24.421Z,85.8
2018-01-06T11:05:27.900Z,86.2
2018-01-06T11:06:31.449Z,85.8
2018-01-06T11:07:35.275Z,85
2018-01-06T11:08:39.260Z,84.8
2018-01-06T11:09:49.640Z,84.4
2018-01-06T11:11:11.184Z,84.5
2018-01-06T11:12:24.476Z,84.6
2018-01-06T11:13:28.590Z,85.5
2018-01-06T11:14:34.957Z,85.3
2018-01-06T11:15:58.901Z,85.1
2018-01-06T11:17:09.535Z,85
2018-01-06T11:18:14.170Z,85.5
2018-01-06T11:19:17.709Z,85.5
2018-01-06T11:20:23.788Z,85.9
2018-01-06T11:21:29.382Z,85.7
2018-01-06T11:22:41.924Z,85.3
2018-01-06T11:23:45.861Z,85.5
2018-01-06T11:24:51.173Z,86.3
2018-01-06T11:25:55.350Z,86.2
2018-01-06T11:26:59.312Z,86.1
2018-01-06T11:28:02.842Z,86.2
2018-01-06T11:29:06.214Z,86
2018-01-06T11:30:10.132Z,85.2
2018-01-06T11:31:14.064Z,85.4
2018-01-06T11:32:18.504Z,85.9
2018-01-06T11:33:27.938Z,85.9
2018-01-06T11:34:32.151Z,85.7
2018-01-06T11:35:36.619Z,85.7
2018-01-06T11:36:39.919Z,86
2018-01-06T11:37:44.548Z,86.1
2018-01-06T11:38:48.011Z,85.7
2018-01-06T11:39:51.532Z,85.7
2018-01-06T11:40:54.939Z,85.7
2018-01-06T11:42:01.637Z,85.1
2018-01-06T11:43:06.400Z,85.7
2018-01-06T11:44:14.952Z,86
2018-01-06T11:45:18.545Z,86.6
2018-01-06T11:46:22.533Z,86.2
2018-01-06T11:47:27.688Z,86.6
2018-01-06T11:48:30.949Z,86.5
2018-01-06T11:49:35.100Z,86.6
2018-01-06T11:50:38.713Z,86.3
2018-01-06T11:51:43.615Z,86.2
2018-01-06T11:52:47.040Z,86
2018-01-06T11:53:50.480Z,85.6
2018-01-06T11:54:57.592Z,85.8
2018-01-06T11:56:01.012Z,86.1
2018-01-06T11:57:04.969Z,86.1
2018-01-06T11:58:08.527Z,86.1
2018-01-06T11:59:11.658Z,85.9
2018-01-06T12:00:15.054Z,85.9
2018-01-06T12:01:19.013Z,86.7
2018-01-06T12:02:22.591Z,86
2018-01-06T12:03:26.022Z,86.1
2018-01-06T12:04:29.446Z,86.1
2018-01-06T12:05:37.154Z,85.3
2018-01-06T12:06:40.700Z,84.8
2018-01-06T12:07:44.260Z,84.4
2018-01-06T12:08:47.586Z,84.7
2018-01-06T12:09:51.044Z,84.7
2018-01-06T12:10:54.441Z,84.3
2018-01-06T12:11:58.438Z,84.2
2018-01-06T12:13:02.401Z,84.6
2018-01-06T12:14:07.803Z,84.7
2018-01-06T12:15:11.060Z,84.5
2018-01-06T12:16:50.367Z,84.7
2018-01-06T12:17:53.910Z,84.4
2018-01-06T12:18:57.975Z,84.3
2018-01-06T12:20:01.494Z,84.3
2018-01-06T12:21:07.772Z,84
2018-01-06T12:22:15.426Z,83.8
2018-01-06T12:23:20.378Z,83.6
2018-01-06T12:24:26.623Z,83.2
2018-01-06T12:25:31.354Z,82.5
2018-01-06T12:26:37.349Z,82.6
2018-01-06T12:28:18.494Z,81.5
2018-01-06T12:29:22.516Z,81.5
2018-01-06T12:30:25.943Z,81.4
2018-01-06T12:31:30.301Z,81.5
2018-01-06T12:32:34.495Z,81.5
2018-01-06T12:33:38.109Z,82
2018-01-06T12:34:41.316Z,81.8
2018-01-06T12:35:44.695Z,81.5
2018-01-06T12:36:48.152Z,81.3
2018-01-06T12:37:52.122Z,81.9
2018-01-06T12:39:34.058Z,80.9
2018-01-06T12:40:38.260Z,80.3
2018-01-06T12:41:42.250Z,80.7
2018-01-06T12:42:45.735Z,81
2018-01-06T12:43:51.427Z,81
2018-01-06T12:44:56.549Z,80.1
2018-01-06T12:46:00.696Z,79.7
2018-01-06T12:47:05.555Z,80.1
2018-01-06T12:48:10.161Z,80.4
2018-01-06T12:49:14.191Z,80.7
2018-01-06T12:50:24.901Z,80.9
2018-01-06T12:51:28.304Z,81.2
2018-01-06T12:52:31.793Z,81.6
2018-01-06T12:53:37.365Z,81.8
2018-01-06T12:54:40.755Z,82
2018-01-06T12:55:46.005Z,82.2
2018-01-06T12:56:50.957Z,82.6
2018-01-06T12:57:54.421Z,82.6
2018-01-06T12:58:59.148Z,82.7
2018-01-06T13:00:03.677Z,82.8
2018-01-06T13:01:11.018Z,83.1
2018-01-06T13:02:14.374Z,83.1
2018-01-06T13:03:18.820Z,83.4
2018-01-06T13:04:22.307Z,83.6
2018-01-06T13:05:26.467Z,83.6
2018-01-06T13:06:29.773Z,83.6
2018-01-06T13:07:34.054Z,83.7
2018-01-06T13:08:39.224Z,83.7
2018-01-06T13:09:45.196Z,83.8
2018-01-06T13:10:50.318Z,84.1
2018-01-06T13:12:02.227Z,84.2
2018-01-06T13:13:10.150Z,84.2
2018-01-06T13:14:16.065Z,84
2018-01-06T13:15:20.466Z,84
2018-01-06T13:16:25.499Z,83.7
2018-01-06T13:17:31.286Z,83.6
2018-01-06T13:18:34.572Z,83.5
2018-01-06T13:19:40.597Z,83.3
2018-01-06T13:20:44.001Z,83.3
2018-01-06T13:21:47.654Z,83.5
2018-01-06T13:22:55.196Z,83.6
2018-01-06T13:23:58.660Z,83.7
2018-01-06T13:25:02.140Z,83.9
2018-01-06T13:26:05.377Z,83.9
2018-01-06T13:27:08.714Z,83.5
2018-01-06T13:28:12.905Z,83.6
2018-01-06T13:29:16.953Z,83.6
2018-01-06T13:30:20.338Z,83.6
2018-01-06T13:31:23.717Z,83.9
2018-01-06T13:32:27.110Z,84.1
2018-01-06T13:33:34.102Z,84.2
2018-01-06T13:34:37.579Z,84.2
2018-01-06T13:35:40.941Z,84
2018-01-06T13:36:44.361Z,84
2018-01-06T13:37:47.832Z,83.9
2018-01-06T13:38:51.294Z,84
2018-01-06T13:39:54.789Z,84.2
2018-01-06T13:40:58.875Z,84.1
2018-01-06T13:42:02.878Z,84.3
2018-01-06T13:43:06.307Z,84.3
2018-01-06T13:44:13.989Z,84.5
2018-01-06T13:45:17.576Z,84.5
2018-01-06T13:46:21.016Z,84.3
2018-01-06T13:47:24.444Z,84.4
2018-01-06T13:48:27.680Z,84.6
2018-01-06T13:49:31.207Z,84.5
2018-01-06T13:50:34.625Z,84.4
2018-01-06T13:51:38.060Z,84.3
2018-01-06T13:52:42.124Z,84.5
2018-01-06T13:53:45.622Z,84.5
2018-01-06T13:54:52.646Z,84.6
2018-01-06T13:55:56.002Z,84.6
2018-01-06T13:56:59.417Z,84.7
2018-01-06T13:58:02.842Z,84.7
2018-01-06T13:59:06.245Z,84.8
2018-01-06T14:00:11.521Z,84.9
2018-01-06T14:01:15.086Z,84.7
2018-01-06T14:02:18.460Z,84.7
2018-01-06T14:03:21.857Z,84.6
2018-01-06T14:04:25.379Z,84.6
2018-01-06T14:05:33.295Z,85.6
2018-01-06T14:06:36.855Z,85.7
2018-01-06T14:07:40.452Z,84.6
2018-01-06T14:08:44.134Z,84.8
2018-01-06T14:09:47.498Z,84.8
2018-01-06T14:10:51.011Z,85.9
2018-01-06T14:11:54.904Z,85.9
2018-01-06T14:12:58.305Z,85.9
2018-01-06T14:14:02.405Z,85.9
2018-01-06T14:15:05.820Z,86
2018-01-06T14:16:12.575Z,86.1
2018-01-06T14:17:16.065Z,86.1
2018-01-06T14:18:19.407Z,86.1
2018-01-06T14:19:23.119Z,86.1
2018-01-06T14:20:27.109Z,86.3
2018-01-06T14:21:30.619Z,86
2018-01-06T14:22:34.273Z,85.9
2018-01-06T14:23:37.681Z,86.2
2018-01-06T14:24:41.369Z,86.1
2018-01-06T14:25:44.884Z,86.1
2018-01-06T14:26:51.979Z,86.2
2018-01-06T14:27:55.264Z,86.2
2018-01-06T14:28:58.829Z,86.1
2018-01-06T14:30:02.250Z,86.2
2018-01-06T14:31:05.568Z,86.2
2018-01-06T14:32:08.685Z,86.2
2018-01-06T14:33:11.925Z,86
2018-01-06T14:34:15.145Z,86
2018-01-06T14:35:18.622Z,86.1
2018-01-06T14:36:22.066Z,86
2018-01-06T14:37:29.876Z,85.9
2018-01-06T14:38:32.097Z,85.6
2018-01-06T14:39:35.457Z,85.7
2018-01-06T14:40:39.584Z,85.6
2018-01-06T14:41:43.035Z,85.4
2018-01-06T14:42:46.491Z,85.5
2018-01-06T14:43:50.479Z,85.4
2018-01-06T14:44:53.867Z,85.2
2018-01-06T14:45:57.276Z,85.6
2018-01-06T14:47:00.591Z,85.7
2018-01-06T14:48:07.740Z,85.8
2018-01-06T14:49:11.302Z,85.7
2018-01-06T14:50:14.828Z,85.8
2018-01-06T14:51:19.172Z,85.7
2018-01-06T14:52:22.750Z,85.6
2018-01-06T14:53:26.378Z,85.7
2018-01-06T14:54:30.440Z,85.7
2018-01-06T14:55:33.837Z,85.8
2018-01-06T14:56:37.423Z,85.8
2018-01-06T14:57:40.817Z,85.9
2018-01-06T14:58:47.625Z,85.9
2018-01-06T14:59:51.011Z,85.7
2018-01-06T15:00:55.075Z,85.2
2018-01-06T15:01:58.528Z,85.7
2018-01-06T15:03:01.833Z,85.3
2018-01-06T15:04:05.184Z,85.5
2018-01-06T15:05:08.761Z,85.8
2018-01-06T15:06:12.091Z,85.6
2018-01-06T15:07:15.414Z,85.6
2018-01-06T15:08:19.734Z,85.9
2018-01-06T15:09:26.539Z,85.7
2018-01-06T15:10:29.994Z,85.8
2018-01-06T15:11:33.446Z,86
2018-01-06T15:12:36.959Z,86.1
2018-01-06T15:13:40.805Z,86
2018-01-06T15:14:44.297Z,86
2018-01-06T15:15:47.724Z,86.1
2018-01-06T15:16:52.197Z,86.4
2018-01-06T15:17:55.530Z,86.6
2018-01-06T15:18:59.683Z,86.5
2018-01-06T15:20:06.594Z,86.4
2018-01-06T15:21:11.264Z,86.1
2018-01-06T15:22:14.762Z,86
2018-01-06T15:23:18.951Z,86.3
2018-01-06T15:24:22.184Z,86.6
2018-01-06T15:25:25.657Z,86.7
2018-01-06T15:26:29.757Z,86.8